Time;durP1;ratioP1;P1;durP2;ratioP2;P2;SDS_P1;SDS_P2;PMS_P1;PMS_P2;Temp;Humidity;BMP_temperature;BMP_pressure;BME280_temperature;BME280_humidity;BME280_pressure;Samples;Min_cycle;Max_cycle;Signal;HPM_P1;HPM_P2
2022/10/17 00:00:08;;;;;;;8.57;7.72;;;;;;;18.29;77.21;100185.94;5108398;28;20061;-74
2022/10/17 00:02:35;;;;;;;8.82;7.80;;;;;;;18.26;77.04;100184.66;5106932;28;20062;-74
2022/10/17 00:05:03;;;;;;;8.73;8.02;;;;;;;18.26;76.76;100178.19;5120766;28;20051;-74
2022/10/17 00:07:30;;;;;;;8.77;8.25;;;;;;;18.14;77.00;100167.59;5106542;28;20054;-74
2022/10/17 00:09:57;;;;;;;9.05;8.55;;;;;;;18.09;77.31;100160.13;5103701;28;20051;-74
2022/10/17 00:12:24;;;;;;;10.05;9.15;;;;;;;18.22;77.18;100192.13;5086535;28;20066;-74
2022/10/17 00:14:51;;;;;;;10.05;8.90;;;;;;;18.22;77.08;100181.69;5108724;28;20047;-73
2022/10/17 00:17:17;;;;;;;8.85;8.20;;;;;;;18.07;77.06;100148.34;5100039;28;20126;-73
2022/10/17 00:19:45;;;;;;;9.50;8.63;;;;;;;18.24;76.89;100176.50;5103248;28;20039;-74
2022/10/17 00:22:12;;;;;;;10.27;9.13;;;;;;;18.10;77.10;100156.13;5099358;28;20066;-74
2022/10/17 00:24:38;;;;;;;9.25;8.43;;;;;;;18.16;76.88;100168.91;5102279;28;20051;-73
2022/10/17 00:27:05;;;;;;;8.95;8.27;;;;;;;18.05;77.01;100147.88;5100245;28;20063;-72
2022/10/17 00:29:32;;;;;;;9.60;8.02;;;;;;;17.97;77.21;100128.94;5107250;28;20048;-75
2022/10/17 00:31:59;;;;;;;8.35;7.65;;;;;;;18.10;76.88;100136.34;5104608;28;20052;-73
2022/10/17 00:34:28;;;;;;;8.73;8.05;;;;;;;18.14;77.31;100128.84;5104936;28;21484;-74
2022/10/17 00:36:55;;;;;;;10.00;8.85;;;;;;;18.09;76.94;100126.22;5111537;28;20410;-74
2022/10/17 00:39:22;;;;;;;8.40;7.60;;;;;;;18.34;77.17;100158.31;5101158;28;20055;-72
2022/10/17 00:41:48;;;;;;;8.23;7.47;;;;;;;18.23;77.17;100137.28;5102928;28;20386;-73
2022/10/17 00:44:30;;;;;;;7.70;7.22;;;;;;;18.32;77.10;100146.50;5106074;28;20479;-74
2022/10/17 00:47:01;;;;;;;12.88;7.95;;;;;;;18.43;77.08;100147.78;5101403;28;20043;-74
2022/10/17 00:49:31;;;;;;;8.52;7.70;;;;;;;18.45;76.89;100148.25;5100713;28;20482;-74
2022/10/17 00:52:01;;;;;;;8.02;7.32;;;;;;;18.34;77.01;100132.06;5101022;28;20096;-73
2022/10/17 00:54:33;;;;;;;11.60;8.27;;;;;;;18.45;76.91;100144.59;5097172;28;20498;-73
2022/10/17 00:57:00;;;;;;;8.52;7.50;;;;;;;18.33;77.07;100130.41;5101343;28;20056;-72
2022/10/17 00:59:29;;;;;;;8.32;7.60;;;;;;;18.47;76.82;100145.09;5077363;28;20094;-73
2022/10/17 01:02:01;;;;;;;7.93;7.18;;;;;;;18.30;76.69;100116.97;5107779;28;20059;-72
2022/10/17 01:04:28;;;;;;;9.10;8.35;;;;;;;18.41;76.79;100138.81;5105418;28;20043;-73
2022/10/17 01:06:55;;;;;;;9.80;9.05;;;;;;;18.33;76.52;100124.75;5099887;28;20043;-73
2022/10/17 01:09:22;;;;;;;8.85;8.05;;;;;;;18.30;76.59;100114.13;5103900;28;20059;-73
2022/10/17 01:12:09;;;;;;;8.23;7.40;;;;;;;18.32;76.24;100131.56;5110017;28;20051;-73
2022/10/17 01:14:54;;;;;;;8.10;7.30;;;;;;;18.21;76.51;100119.81;5098532;28;20051;-73
2022/10/17 01:17:41;;;;;;;7.88;7.38;;;;;;;18.06;76.31;100109.97;5110161;28;21523;-72
2022/10/17 01:20:56;;;;;;;8.95;8.18;;;;;;;18.06;76.36;100111.97;5107085;28;20571;-73
2022/10/17 01:24:13;;;;;;;8.50;7.75;;;;;;;17.98;76.43;100120.16;5101335;28;20047;-74
2022/10/17 01:26:51;;;;;;;11.30;10.25;;;;;;;18.00;76.50;100117.78;5088322;28;20058;-75
2022/10/17 01:29:46;;;;;;;7.80;7.30;;;;;;;18.03;76.15;100113.47;5114849;28;20062;-74
2022/10/17 01:32:28;;;;;;;7.97;7.38;;;;;;;18.09;76.03;100122.59;5105446;28;20047;-74
2022/10/17 01:35:05;;;;;;;9.00;8.07;;;;;;;18.16;75.86;100132.16;5104217;28;20045;-75
2022/10/17 01:38:00;;;;;;;7.35;6.95;;;;;;;18.05;75.66;100113.09;5111612;28;20051;-76
2022/10/17 01:40:35;;;;;;;8.25;7.60;;;;;;;18.25;75.41;100132.09;5102045;28;20192;-76
2022/10/17 01:43:13;;;;;;;8.07;7.35;;;;;;;18.30;75.28;100145.22;5103546;28;20044;-74
2022/10/17 01:45:46;;;;;;;8.15;7.45;;;;;;;18.30;74.99;100142.41;5107604;28;20048;-74
2022/10/17 01:48:26;;;;;;;9.38;8.02;;;;;;;18.24;74.81;100136.94;5104607;28;20051;-73
2022/10/17 01:51:00;;;;;;;7.75;7.10;;;;;;;18.38;74.82;100149.97;5104877;28;20129;-72
2022/10/17 01:53:32;;;;;;;8.68;7.35;;;;;;;18.36;74.58;100141.00;5108535;27;20047;-73
2022/10/17 01:56:05;;;;;;;9.57;8.63;;;;;;;18.33;74.38;100138.88;5104797;28;20048;-73
2022/10/17 01:58:37;;;;;;;6.82;6.47;;;;;;;18.38;74.18;100145.16;5101521;28;20055;-73
2022/10/17 02:01:07;;;;;;;7.38;6.88;;;;;;;18.44;73.88;100148.63;5102081;28;20067;-72
2022/10/17 02:03:34;;;;;;;7.78;7.10;;;;;;;18.57;73.67;100160.84;5105569;28;20079;-73
2022/10/17 02:06:01;;;;;;;7.78;7.18;;;;;;;18.55;73.48;100147.03;5103461;28;20510;-73
2022/10/17 02:08:40;;;;;;;8.25;7.57;;;;;;;18.63;72.75;100157.47;5106054;28;20047;-73
2022/10/17 02:11:15;;;;;;;8.32;7.72;;;;;;;18.66;72.82;100150.25;5101287;28;20056;-73
2022/10/17 02:13:51;;;;;;;7.93;7.43;;;;;;;18.72;72.55;100159.41;5104713;28;20051;-73
2022/10/17 02:16:26;;;;;;;8.10;7.35;;;;;;;18.77;72.44;100170.50;5106302;28;20506;-72
2022/10/17 02:19:13;;;;;;;9.77;7.10;;;;;;;18.78;72.00;100152.38;5107875;28;20133;-73
2022/10/17 02:22:11;;;;;;;8.35;7.68;;;;;;;18.73;71.53;100147.75;5107671;28;20059;-73
2022/10/17 02:24:48;;;;;;;8.57;7.75;;;;;;;18.75;71.31;100153.88;5099848;28;20044;-72
2022/10/17 02:27:15;;;;;;;9.63;7.57;;;;;;;18.81;71.37;100163.00;5104786;28;20058;-73
2022/10/17 02:29:59;;;;;;;8.30;7.47;;;;;;;18.80;71.01;100144.34;5103565;28;20055;-73
2022/10/17 02:32:57;;;;;;;8.30;7.47;;;;;;;18.84;70.76;100153.84;5110849;28;20505;-74
2022/10/17 02:35:29;;;;;;;8.57;7.93;;;;;;;18.89;70.87;100153.59;5107029;28;20047;-73
2022/10/17 02:37:57;;;;;;;8.63;7.97;;;;;;;18.90;70.71;100156.06;5109347;28;20052;-75
2022/10/17 02:40:28;;;;;;;8.77;8.00;;;;;;;18.84;70.60;100145.34;5106290;28;20142;-73
2022/10/17 02:42:57;;;;;;;9.30;7.43;;;;;;;19.03;70.48;100161.81;5108671;28;20048;-74
2022/10/17 02:45:27;;;;;;;8.25;7.50;;;;;;;19.11;70.69;100161.75;5104141;28;20066;-74
2022/10/17 02:48:02;;;;;;;8.27;7.70;;;;;;;18.99;70.85;100149.53;5098589;28;20074;-74
2022/10/17 02:51:16;;;;;;;8.82;8.00;;;;;;;18.93;70.64;100144.06;5106319;28;20047;-74
2022/10/17 02:53:50;;;;;;;8.50;7.72;;;;;;;19.25;70.25;100166.25;5062820;28;20052;-75
2022/10/17 02:56:19;;;;;;;11.82;8.15;;;;;;;19.25;70.27;100161.44;5061898;28;20064;-75
2022/10/17 02:58:55;;;;;;;14.02;7.72;;;;;;;19.26;70.39;100159.44;5073192;28;20059;-76
2022/10/17 03:01:22;;;;;;;8.25;7.55;;;;;;;19.27;70.52;100175.22;5101573;28;20048;-78
2022/10/17 03:03:49;;;;;;;10.35;8.50;;;;;;;19.23;70.29;100169.44;5106844;27;20044;-77
2022/10/17 03:06:16;;;;;;;8.63;7.82;;;;;;;19.08;70.36;100139.78;5098248;28;20104;-77
2022/10/17 03:08:43;;;;;;;8.20;7.60;;;;;;;19.36;69.90;100170.31;5109167;27;20444;-77
2022/10/17 03:11:09;;;;;;;10.63;9.18;;;;;;;19.26;69.97;100162.25;5103255;28;20047;-75
2022/10/17 03:13:36;;;;;;;9.48;8.35;;;;;;;18.97;69.92;100120.75;5105446;28;20054;-75
2022/10/17 03:16:05;;;;;;;8.93;7.70;;;;;;;19.12;69.74;100163.38;5104602;28;20442;-74
2022/10/17 03:18:32;;;;;;;8.48;7.82;;;;;;;19.31;69.47;100176.19;5107343;27;20300;-74
2022/10/17 03:20:59;;;;;;;9.65;8.38;;;;;;;19.24;69.49;100158.94;5102483;28;20063;-75
2022/10/17 03:23:25;;;;;;;8.05;7.45;;;;;;;19.15;69.53;100164.69;5108808;28;20143;-74
2022/10/17 03:25:52;;;;;;;8.20;7.70;;;;;;;19.10;69.58;100156.41;5107421;28;20103;-75
2022/10/17 03:28:19;;;;;;;9.27;7.60;;;;;;;19.04;69.25;100152.13;5102178;27;20043;-75
2022/10/17 03:30:46;;;;;;;13.20;8.38;;;;;;;19.05;69.09;100157.47;5102493;28;20043;-76
2022/10/17 03:33:13;;;;;;;8.93;7.97;;;;;;;19.03;68.57;100147.66;5103873;28;20125;-75
2022/10/17 03:35:40;;;;;;;10.23;8.05;;;;;;;19.04;68.90;100149.31;5106342;28;20133;-74
2022/10/17 03:38:07;;;;;;;8.90;8.15;;;;;;;19.00;68.71;100149.16;5096894;28;20100;-74
2022/10/17 03:40:33;;;;;;;15.85;7.35;;;;;;;19.05;68.84;100156.63;5100866;28;20135;-73
2022/10/17 03:43:00;;;;;;;12.32;7.55;;;;;;;18.90;68.78;100135.44;5099284;28;20417;-73
2022/10/17 03:45:27;;;;;;;8.13;7.43;;;;;;;19.12;68.36;100157.72;5098555;28;20161;-75
2022/10/17 03:47:54;;;;;;;8.30;7.60;;;;;;;19.14;68.03;100155.38;5105880;28;20498;-73
2022/10/17 03:50:21;;;;;;;8.48;7.78;;;;;;;19.36;67.96;100167.47;5099353;28;20615;-74
2022/10/17 03:52:48;;;;;;;9.52;7.60;;;;;;;19.47;67.76;100174.34;5108943;28;20055;-73
2022/10/17 03:55:16;;;;;;;7.93;7.32;;;;;;;19.52;67.54;100181.78;5096507;28;20058;-73
2022/10/17 03:57:43;;;;;;;8.77;7.47;;;;;;;19.56;67.44;100182.75;5101392;28;20056;-73
2022/10/17 04:00:11;;;;;;;8.60;7.53;;;;;;;19.56;67.27;100177.09;5098178;28;20056;-73
2022/10/17 04:02:38;;;;;;;8.38;7.38;;;;;;;19.13;67.21;100118.91;5102433;28;20057;-74
2022/10/17 04:05:05;;;;;;;8.10;7.43;;;;;;;19.61;66.92;100191.03;5098535;28;20060;-73
2022/10/17 04:07:32;;;;;;;7.68;7.00;;;;;;;19.64;66.91;100196.84;5108395;28;20047;-74
2022/10/17 04:09:59;;;;;;;8.85;8.05;;;;;;;19.62;66.77;100198.34;5106420;28;20051;-73
2022/10/17 04:12:26;;;;;;;8.98;7.22;;;;;;;19.68;66.46;100184.81;5098012;28;20047;-74
2022/10/17 04:14:53;;;;;;;7.47;6.88;;;;;;;19.76;66.82;100195.22;5105982;28;20067;-73
2022/10/17 04:17:20;;;;;;;7.57;6.97;;;;;;;19.68;66.36;100187.66;5102302;28;20241;-74
2022/10/17 04:19:48;;;;;;;7.82;7.03;;;;;;;19.31;65.94;100111.88;5104597;28;20532;-75
2022/10/17 04:22:15;;;;;;;7.50;7.03;;;;;;;19.71;65.77;100195.44;5099649;28;20047;-74
2022/10/17 04:24:43;;;;;;;7.65;6.95;;;;;;;19.49;65.50;100157.03;5095820;28;20039;-76
2022/10/17 04:27:10;;;;;;;7.43;6.95;;;;;;;19.73;65.41;100188.25;5110416;28;20071;-74
2022/10/17 04:29:37;;;;;;;9.55;8.75;;;;;;;19.75;65.42;100193.56;5113525;28;20048;-74
2022/10/17 04:32:04;;;;;;;7.93;7.18;;;;;;;19.86;65.18;100203.25;5106981;28;20048;-73
2022/10/17 04:34:31;;;;;;;18.08;7.53;;;;;;;19.91;64.98;100211.53;5113029;28;20047;-74
2022/10/17 04:36:58;;;;;;;8.35;7.53;;;;;;;19.53;64.62;100155.97;5109400;28;20051;-73
2022/10/17 04:39:25;;;;;;;8.27;7.10;;;;;;;19.74;65.16;100172.09;5107706;28;20049;-73
2022/10/17 04:41:52;;;;;;;7.55;7.00;;;;;;;19.87;64.78;100196.44;5108481;28;20104;-75
2022/10/17 04:44:19;;;;;;;11.70;8.38;;;;;;;19.78;64.95;100181.53;5103524;28;20161;-75
2022/10/17 04:46:46;;;;;;;7.28;6.70;;;;;;;19.83;65.15;100196.31;5104525;28;20051;-76
2022/10/17 04:49:13;;;;;;;7.97;7.18;;;;;;;19.85;65.12;100202.44;5106743;28;20048;-77
2022/10/17 04:51:40;;;;;;;11.95;7.03;;;;;;;19.82;64.80;100199.47;5108716;28;20371;-76
2022/10/17 04:54:06;;;;;;;8.45;7.70;;;;;;;19.70;65.01;100200.28;5102881;28;20044;-80
2022/10/17 04:56:33;;;;;;;7.03;6.40;;;;;;;19.76;64.93;100210.22;5103892;28;20489;-80
2022/10/17 04:59:01;;;;;;;12.20;8.15;;;;;;;19.74;65.00;100211.75;5106959;28;20089;-83
2022/10/17 05:01:28;;;;;;;7.90;7.35;;;;;;;19.68;64.87;100207.47;5105014;28;20050;-85
2022/10/17 05:03:55;;;;;;;12.75;7.47;;;;;;;19.80;64.92;100230.19;5105501;28;20056;-77
2022/10/17 05:06:24;;;;;;;9.18;7.85;;;;;;;19.75;64.81;100210.56;5103386;27;20067;-75
2022/10/17 05:08:51;;;;;;;10.48;7.15;;;;;;;19.61;64.98;100208.00;5110049;28;20047;-75
2022/10/17 05:11:23;;;;;;;11.15;7.32;;;;;;;19.79;64.61;100231.34;5107416;28;20048;-77
2022/10/17 05:13:52;;;;;;;8.18;7.55;;;;;;;19.68;64.74;100225.28;5110580;28;20108;-76
2022/10/17 05:16:21;;;;;;;12.95;7.93;;;;;;;19.81;64.68;100246.00;5106774;28;20387;-78
2022/10/17 05:18:49;;;;;;;8.02;7.13;;;;;;;19.79;64.74;100243.50;5100443;28;20043;-77
2022/10/17 05:21:19;;;;;;;10.35;6.32;;;;;;;19.74;64.79;100240.06;5112189;28;20116;-77
2022/10/17 05:23:46;;;;;;;10.80;6.35;;;;;;;19.72;64.67;100243.25;5101585;28;20063;-77
2022/10/17 05:26:13;;;;;;;11.25;7.40;;;;;;;19.84;64.54;100251.78;5105311;27;20811;-75
2022/10/17 05:28:40;;;;;;;8.55;7.65;;;;;;;19.78;64.40;100246.69;5108363;28;20047;-76
2022/10/17 05:31:09;;;;;;;8.43;7.72;;;;;;;19.79;64.46;100254.00;5107965;28;20059;-76
2022/10/17 05:33:37;;;;;;;8.88;7.97;;;;;;;19.52;64.59;100201.59;5103893;28;20051;-78
2022/10/17 05:36:04;;;;;;;7.90;6.97;;;;;;;19.49;64.42;100188.19;5101821;28;20047;-77
2022/10/17 05:38:32;;;;;;;7.78;7.18;;;;;;;19.77;64.60;100239.38;5107771;28;20536;-75
2022/10/17 05:41:00;;;;;;;9.68;6.88;;;;;;;19.83;64.28;100252.97;5105865;28;20043;-74
2022/10/17 05:43:28;;;;;;;8.40;6.15;;;;;;;19.91;64.22;100261.72;5109091;28;20425;-74
2022/10/17 05:45:55;;;;;;;7.38;6.97;;;;;;;19.85;64.47;100259.09;5097873;28;20444;-74
2022/10/17 05:48:22;;;;;;;9.27;8.40;;;;;;;19.95;64.35;100269.16;5101020;28;20138;-79
2022/10/17 05:50:49;;;;;;;11.40;7.53;;;;;;;19.86;64.20;100259.94;5100874;28;20058;-74
2022/10/17 05:53:16;;;;;;;8.88;7.28;;;;;;;19.97;64.12;100272.50;5102909;28;20076;-73
2022/10/17 05:55:43;;;;;;;7.93;7.32;;;;;;;19.97;64.21;100278.16;5112324;28;20068;-75
2022/10/17 05:58:10;;;;;;;7.68;7.00;;;;;;;19.99;64.05;100275.78;5102258;28;20052;-75
2022/10/17 06:00:48;;;;;;;7.82;7.03;;;;;;;19.98;64.13;100274.13;5102697;28;20043;-76
2022/10/17 06:03:15;;;;;;;7.82;7.13;;;;;;;19.91;64.21;100271.06;5102861;27;20452;-75
2022/10/17 06:05:41;;;;;;;7.70;7.10;;;;;;;19.93;64.26;100282.03;5103326;28;20052;-74
2022/10/17 06:08:08;;;;;;;7.97;7.15;;;;;;;19.92;64.42;100286.88;5107877;28;20421;-73
2022/10/17 06:10:35;;;;;;;8.00;7.40;;;;;;;19.89;64.37;100277.06;5104722;28;20050;-73
2022/10/17 06:13:02;;;;;;;9.05;8.02;;;;;;;19.93;64.21;100282.03;5101379;28;20119;-73
2022/10/17 06:15:28;;;;;;;7.82;6.90;;;;;;;19.86;64.29;100279.75;5109991;28;20052;-71
2022/10/17 06:17:55;;;;;;;8.45;7.43;;;;;;;19.73;64.40;100270.41;5108673;27;20066;-72
2022/10/17 06:20:22;;;;;;;9.40;8.75;;;;;;;19.78;64.71;100286.34;5099260;28;20076;-75
2022/10/17 06:22:49;;;;;;;8.23;7.38;;;;;;;19.86;64.63;100288.25;5090720;28;20126;-74
2022/10/17 06:25:16;;;;;;;7.93;7.40;;;;;;;19.60;64.55;100261.00;5099298;28;20058;-73
2022/10/17 06:27:43;;;;;;;9.13;7.97;;;;;;;19.80;64.51;100296.19;5100495;27;20056;-73
2022/10/17 06:30:10;;;;;;;11.05;10.10;;;;;;;19.69;64.83;100288.44;5104308;28;20055;-73
2022/10/17 06:32:37;;;;;;;9.40;8.60;;;;;;;19.73;64.60;100295.09;5099672;28;20051;-74
2022/10/17 06:35:04;;;;;;;9.98;9.07;;;;;;;19.55;64.83;100274.56;5098828;28;20044;-73
2022/10/17 06:37:35;;;;;;;12.20;10.23;;;;;;;19.62;65.16;100295.50;5100282;28;20059;-73
2022/10/17 06:40:03;;;;;;;9.90;9.10;;;;;;;19.57;65.25;100292.88;5111716;28;20052;-75
2022/10/17 06:42:30;;;;;;;10.60;9.55;;;;;;;19.55;65.44;100312.19;5106257;28;20059;-74
2022/10/17 06:44:57;;;;;;;12.15;11.00;;;;;;;19.50;65.93;100314.44;5103182;28;20549;-72
2022/10/17 06:47:24;;;;;;;14.00;13.00;;;;;;;19.28;65.71;100284.44;5099035;28;20052;-74
2022/10/17 06:49:50;;;;;;;13.95;13.10;;;;;;;19.23;66.04;100282.66;5100327;28;20043;-74
2022/10/17 06:52:17;;;;;;;18.90;17.58;;;;;;;19.21;66.27;100284.19;5104988;28;20065;-76
2022/10/17 06:54:44;;;;;;;19.75;18.60;;;;;;;19.22;66.68;100303.66;5104133;28;20055;-76
2022/10/17 06:57:10;;;;;;;19.35;18.25;;;;;;;19.02;67.03;100282.66;5101596;28;20056;-76
2022/10/17 06:59:37;;;;;;;23.40;22.00;;;;;;;18.97;67.86;100308.31;5101619;28;20063;-75
2022/10/17 07:02:05;;;;;;;12.20;2.83;;;;;;;18.68;68.50;100284.53;5103869;28;20066;-76
2022/10/17 07:04:31;;;;;;;7.55;2.40;;;;;;;18.53;69.11;100287.09;5102699;28;20078;-75
2022/10/17 07:07:01;;;;;;;6.25;2.10;;;;;;;18.63;69.72;100320.63;5098734;28;20096;-75
2022/10/17 07:09:29;;;;;;;6.60;2.53;;;;;;;18.52;70.21;100297.56;5102115;28;20112;-76
2022/10/17 07:11:56;;;;;;;8.35;2.70;;;;;;;18.20;70.81;100268.78;5102181;28;20051;-77
2022/10/17 07:14:30;;;;;;;8.90;2.17;;;;;;;18.78;71.93;100336.25;5101614;28;20043;-78
2022/10/17 07:16:58;;;;;;;9.10;3.15;;;;;;;18.87;72.92;100322.88;5108010;28;20069;-78
2022/10/17 07:19:28;;;;;;;8.05;3.33;;;;;;;18.85;73.40;100305.44;5103589;28;20067;-74
2022/10/17 07:21:55;;;;;;;4.35;2.35;;;;;;;18.85;74.93;100311.91;5104596;28;20054;-76
2022/10/17 07:24:22;;;;;;;7.95;2.65;;;;;;;18.83;76.17;100328.38;5109204;28;20052;-79
2022/10/17 07:26:49;;;;;;;7.25;3.05;;;;;;;18.77;77.26;100334.56;5097564;28;20044;-76
2022/10/17 07:29:15;;;;;;;6.07;2.70;;;;;;;18.76;78.10;100336.59;5105075;28;20090;-78
2022/10/17 07:31:44;;;;;;;8.60;3.85;;;;;;;18.99;78.70;100322.97;5109559;28;20067;-77
2022/10/17 07:34:11;;;;;;;8.20;2.45;;;;;;;19.23;78.07;100321.47;5108695;28;20490;-76
2022/10/17 07:36:38;;;;;;;9.52;3.28;;;;;;;19.30;77.07;100330.25;5098322;27;20417;-75
2022/10/17 07:39:04;;;;;;;4.25;2.90;;;;;;;19.54;76.39;100332.38;5103043;28;20051;-75
2022/10/17 07:41:31;;;;;;;8.02;2.70;;;;;;;19.56;75.83;100310.22;5103444;28;20044;-76
2022/10/17 07:43:58;;;;;;;6.55;2.45;;;;;;;19.91;75.15;100347.56;5100149;27;20494;-76
2022/10/17 07:46:25;;;;;;;18.88;17.67;;;;;;;20.03;75.04;100344.78;5094538;28;20044;-74
2022/10/17 07:48:51;;;;;;;19.25;17.58;;;;;;;20.35;74.53;100373.47;5105045;28;20410;-74
2022/10/17 07:51:19;;;;;;;22.08;20.58;;;;;;;20.43;73.84;100380.19;5103613;28;20386;-74
2022/10/17 07:53:45;;;;;;;22.70;21.30;;;;;;;20.39;73.62;100382.91;5107072;28;20040;-74
2022/10/17 07:56:14;;;;;;;14.73;13.73;;;;;;;20.60;73.87;100391.38;5100281;28;20514;-74
2022/10/17 07:58:41;;;;;;;14.07;13.07;;;;;;;20.39;73.47;100374.41;5101624;28;20054;-74
2022/10/17 08:01:13;;;;;;;17.15;15.70;;;;;;;20.05;73.86;100387.78;5101802;27;20043;-74
2022/10/17 08:03:43;;;;;;;19.58;18.48;;;;;;;19.70;74.02;100380.78;5106242;28;20047;-74
2022/10/17 08:06:11;;;;;;;17.42;15.90;;;;;;;19.38;74.39;100383.13;5104598;28;20051;-75
2022/10/17 08:08:37;;;;;;;15.38;14.68;;;;;;;19.18;75.19;100394.13;5109115;28;20052;-74
2022/10/17 08:11:07;;;;;;;16.80;15.57;;;;;;;19.16;75.45;100396.44;5108593;28;20058;-74
2022/10/17 08:13:36;;;;;;;20.98;19.67;;;;;;;19.02;75.80;100383.72;5104321;28;20074;-74
2022/10/17 08:16:06;;;;;;;17.00;15.65;;;;;;;18.62;76.04;100325.47;5107012;28;20051;-74
2022/10/17 08:18:35;;;;;;;17.67;16.80;;;;;;;19.11;76.29;100409.97;5105688;28;20070;-75
2022/10/17 08:21:07;;;;;;;18.88;17.75;;;;;;;18.99;76.28;100415.53;5097761;28;20055;-74
2022/10/17 08:23:35;;;;;;;19.80;18.33;;;;;;;19.02;76.85;100414.84;5098938;28;20051;-75
2022/10/17 08:26:04;;;;;;;21.90;20.40;;;;;;;19.04;76.93;100427.50;5100845;28;20113;-75
2022/10/17 08:28:34;;;;;;;17.45;15.93;;;;;;;18.82;76.47;100385.31;5102633;28;20481;-75
2022/10/17 08:31:06;;;;;;;18.85;17.33;;;;;;;19.12;76.62;100428.63;5106668;28;20043;-75
2022/10/17 08:33:33;;;;;;;16.77;15.57;;;;;;;19.29;76.62;100433.34;5093124;28;20054;-74
2022/10/17 08:36:01;;;;;;;12.35;11.45;;;;;;;19.23;76.78;100412.06;5099417;28;20052;-75
2022/10/17 08:38:29;;;;;;;11.77;10.93;;;;;;;19.40;76.60;100445.94;5097227;28;20043;-75
2022/10/17 08:41:04;;;;;;;15.80;13.10;;;;;;;19.46;76.61;100455.06;5102540;28;20131;-74
2022/10/17 08:43:51;;;;;;;13.50;12.27;;;;;;;19.48;76.64;100453.53;5102605;28;20164;-75
2022/10/17 08:46:18;;;;;;;12.93;11.65;;;;;;;19.51;76.70;100438.69;5101344;28;20048;-75
2022/10/17 08:48:48;;;;;;;11.90;10.85;;;;;;;19.62;76.54;100448.47;5099861;28;20505;-75
2022/10/17 08:51:21;;;;;;;20.20;10.45;;;;;;;19.64;76.07;100446.13;5101775;28;20422;-76
2022/10/17 08:54:10;;;;;;;11.77;10.70;;;;;;;19.77;76.86;100449.06;5098828;28;20052;-75
2022/10/17 08:56:50;;;;;;;13.32;10.07;;;;;;;19.75;76.56;100451.38;5101016;28;20570;-73
2022/10/17 08:59:21;;;;;;;12.25;10.15;;;;;;;19.84;76.75;100466.31;5105410;28;20059;-75
2022/10/17 09:01:57;;;;;;;11.57;10.50;;;;;;;19.84;76.58;100458.66;5102065;28;20091;-76
2022/10/17 09:04:27;;;;;;;11.60;10.45;;;;;;;19.92;76.89;100450.41;5109843;28;20044;-75
2022/10/17 09:07:04;;;;;;;10.50;9.65;;;;;;;19.96;76.44;100457.88;5109814;28;20039;-75
2022/10/17 09:10:11;;;;;;;12.43;10.85;;;;;;;20.17;76.79;100445.69;5100704;28;20379;-75
2022/10/17 09:12:53;;;;;;;10.90;9.93;;;;;;;20.33;76.61;100464.53;5081417;28;20047;-76
2022/10/17 09:15:20;;;;;;;15.40;11.02;;;;;;;20.62;76.36;100467.66;5097554;28;20058;-77
2022/10/17 09:17:58;;;;;;;16.60;9.25;;;;;;;20.55;76.47;100474.72;5107323;28;20055;-76
2022/10/17 09:20:31;;;;;;;15.48;11.48;;;;;;;20.45;75.85;100462.94;5095777;28;20048;-76
2022/10/17 09:22:59;;;;;;;11.35;10.38;;;;;;;20.44;75.89;100473.44;5096858;28;20051;-76
2022/10/17 09:25:27;;;;;;;9.90;9.02;;;;;;;20.46;76.04;100482.44;5099982;28;20421;-76
2022/10/17 09:28:12;;;;;;;10.77;9.98;;;;;;;20.35;75.25;100464.22;5100859;28;20051;-76
2022/10/17 09:30:43;;;;;;;17.70;11.38;;;;;;;20.46;75.40;100470.28;5102494;28;20397;-75
2022/10/17 09:33:13;;;;;;;19.08;13.45;;;;;;;20.48;75.52;100488.59;5103324;28;20100;-76
2022/10/17 09:36:03;;;;;;;32.95;19.90;;;;;;;20.60;75.61;100493.50;5100868;28;20050;-76
2022/10/17 09:38:38;;;;;;;26.88;16.50;;;;;;;20.55;74.97;100491.72;5103372;28;20063;-76
2022/10/17 09:41:12;;;;;;;32.20;16.95;;;;;;;20.64;75.51;100490.81;5108577;28;20051;-77
2022/10/17 09:44:13;;;;;;;21.60;15.07;;;;;;;20.71;75.23;100496.72;5101538;27;20056;-76
2022/10/17 09:46:49;;;;;;;37.50;22.33;;;;;;;20.73;75.17;100502.91;5096224;28;20498;-77
2022/10/17 09:49:22;;;;;;;36.90;17.55;;;;;;;20.74;74.94;100504.53;5104590;28;20051;-77
2022/10/17 09:51:49;;;;;;;25.95;19.02;;;;;;;20.72;74.69;100504.91;5105888;28;20047;-78
2022/10/17 09:54:20;;;;;;;30.85;17.50;;;;;;;20.50;74.10;100469.25;5104298;28;20059;-77
2022/10/17 09:57:17;;;;;;;15.80;13.43;;;;;;;20.87;73.62;100508.25;5101728;28;20246;-77
2022/10/17 09:59:45;;;;;;;18.40;14.90;;;;;;;20.93;73.48;100499.16;5086324;28;20051;-77
2022/10/17 10:02:12;;;;;;;11.27;10.18;;;;;;;21.05;73.27;100513.34;5099265;28;20539;-77
2022/10/17 10:04:55;;;;;;;23.88;17.13;;;;;;;21.03;73.02;100487.34;5100703;28;20058;-76
2022/10/17 10:07:38;;;;;;;26.35;18.15;;;;;;;21.20;73.68;100465.59;5101956;28;20222;-77
2022/10/17 10:10:21;;;;;;;15.93;13.23;;;;;;;21.36;73.06;100488.44;5101663;28;20128;-77
2022/10/17 10:13:17;;;;;;;20.55;14.88;;;;;;;21.57;72.52;100506.19;5100899;28;20059;-77
2022/10/17 10:15:46;;;;;;;17.88;14.05;;;;;;;22.19;73.61;100502.09;5103217;28;20043;-78
2022/10/17 10:18:34;;;;;;;13.23;11.60;;;;;;;22.70;73.77;100507.19;5107400;28;20526;-77
2022/10/17 10:21:06;;;;;;;12.52;11.38;;;;;;;22.70;72.76;100516.59;5103621;28;20048;-77
2022/10/17 10:23:38;;;;;;;21.73;14.35;;;;;;;22.60;72.70;100499.22;5110097;28;20056;-77
2022/10/17 10:26:33;;;;;;;27.38;18.95;;;;;;;22.57;71.53;100511.31;5103322;28;20142;-76
2022/10/17 10:29:03;;;;;;;10.88;9.90;;;;;;;22.29;70.69;100489.38;5103085;28;20131;-77
2022/10/17 10:31:37;;;;;;;23.52;15.55;;;;;;;22.40;70.69;100516.13;5101775;28;20528;-77
2022/10/17 10:34:30;;;;;;;11.98;10.75;;;;;;;22.41;70.98;100516.94;5100010;28;20059;-76
2022/10/17 10:37:01;;;;;;;10.63;9.63;;;;;;;22.27;69.85;100508.00;5088346;28;20502;-77
2022/10/17 10:39:49;;;;;;;10.20;9.40;;;;;;;22.47;69.97;100530.56;5098018;28;20048;-76
2022/10/17 10:42:30;;;;;;;10.68;9.63;;;;;;;22.23;69.26;100496.50;5098243;28;20047;-76
2022/10/17 10:45:02;;;;;;;16.35;14.50;;;;;;;22.27;69.29;100510.84;5106510;28;20047;-77
2022/10/17 10:47:31;;;;;;;10.75;9.35;;;;;;;22.17;68.48;100515.00;5095861;28;20047;-76
2022/10/17 10:50:20;;;;;;;19.02;10.65;;;;;;;22.10;67.96;100504.22;5106183;28;20043;-77
2022/10/17 10:53:02;;;;;;;13.10;11.57;;;;;;;22.27;67.30;100508.00;5099836;28;20058;-77
2022/10/17 10:55:33;;;;;;;8.88;8.18;;;;;;;22.56;67.91;100512.47;5102683;28;20110;-77
2022/10/17 10:58:18;;;;;;;26.42;10.48;;;;;;;22.65;67.80;100530.25;5104249;28;20047;-77
2022/10/17 11:00:48;;;;;;;13.40;9.57;;;;;;;22.66;67.52;100511.97;5093600;28;20048;-75
2022/10/17 11:03:14;;;;;;;15.60;14.05;;;;;;;22.89;67.78;100532.13;5112530;28;20493;-77
2022/10/17 11:05:55;;;;;;;9.52;8.60;;;;;;;22.78;66.59;100548.09;5107131;28;20494;-76
2022/10/17 11:08:29;;;;;;;9.85;9.05;;;;;;;22.69;66.78;100536.84;5107627;28;20078;-77
2022/10/17 11:11:22;;;;;;;12.18;8.82;;;;;;;22.67;66.28;100533.56;5106307;28;20399;-77
2022/10/17 11:13:57;;;;;;;12.52;8.13;;;;;;;22.74;66.05;100516.69;5102682;28;20078;-77
2022/10/17 11:16:51;;;;;;;15.65;10.23;;;;;;;22.76;65.81;100525.66;5101476;28;20067;-77
2022/10/17 11:19:34;;;;;;;10.10;9.10;;;;;;;22.74;66.37;100522.38;5100893;28;20067;-77
2022/10/17 11:22:26;;;;;;;9.23;8.48;;;;;;;22.76;65.97;100545.59;5106860;28;20516;-76
2022/10/17 11:25:35;;;;;;;12.43;8.45;;;;;;;22.62;65.88;100551.72;5111063;28;20047;-76
2022/10/17 11:28:10;;;;;;;10.48;8.93;;;;;;;22.64;65.61;100540.81;5098135;28;20055;-76
2022/10/17 11:30:44;;;;;;;9.30;8.40;;;;;;;22.65;65.14;100535.94;5103607;28;20051;-76
2022/10/17 11:33:17;;;;;;;11.15;8.15;;;;;;;22.99;65.12;100547.88;5106568;28;20056;-77
2022/10/17 11:35:48;;;;;;;10.77;9.90;;;;;;;23.61;64.69;100549.09;5102393;28;20053;-77
2022/10/17 11:38:28;;;;;;;11.25;8.63;;;;;;;23.71;64.80;100553.44;5110044;28;20047;-75
2022/10/17 11:40:58;;;;;;;9.65;8.75;;;;;;;23.62;63.70;100550.75;5111393;28;20127;-75